Manitou, Kentucky
Current Conditions -  °F | °C
As of 4:55 PM on Tuesday 25 Nov 2014 (Local Time) from K2I0 Reporting Station
Clear Clear  
Wind Chill: 35°   Ceiling: Unl
Heat Index: 38°   Visibility: 10mi
Dew Point: 32°   Wind: 5mph
Humidity: 77%   Direction: 20°NNE
Pressure: 30.16"   Gusts: NA
Location:  37.37°N, 87.58°W
Report Text: K2I0 252255Z AUTO 02004KT 10SM CLR 04/00 A3016 RMK AO2 T00351002
Loading
Personal Weather Stations






























Interactive Weather Map New forecast layout! Learn more

10-Day Weather Forecast

Advertisements
Track Severe Weather on mobile